Roxas, Philippines
Current Conditions -  °F | °C
As of 12:00 PM on Sunday 23 Nov 2014 (Local Time) from RPVM Reporting Station
Few Clouds Few Clouds  
Wind Chill: 90°   Ceiling: Unl
Heat Index: 105°   Visibility: 6mi
Dew Point: 79°   Wind: 13mph
Humidity: 70%   Direction: 40°NE
Pressure: 29.83"   Gusts: NA
Location:  11.6°N, 122.75°E
Report Text: RPVM 230400Z 04011KT 9999 FEW018CB 32/26 Q1010 RMK A2983
Loading
Personal Weather Stations






























Interactive Weather Map New forecast layout! Learn more

10-Day Weather Forecast

Advertisements
Track Severe Weather on mobile